Huvudsida
METAR-TAF:

METAR-TAF

Flygplatser :

Fasa, Iran

latitud: 28-58N, longitud: 053-41E, höjd: 1383 m

Aktuellt väderrapport

Denna rapport gjordes för 43 minuter sedan, klockan 23:00 UTC
Vind 4 kt från väst/nordväst
Temperatur 16°C
Fuktighet 51%
Tryck 1018 hPa
Sikt 10 km eller mer
Inga moln under 1 500 m eller inga cumulonimbus

METAR: OISF 132300Z 30004KT CAVOK 16/06 Q1018 A3007

Tid: 03:13 (23:43 UTC)


TAF: saknas

Aktuella väderrapporter och prognoser från 4000 flygplatser (METAR- och TAF-rapporter).

De tillgängliga stationerna syns som gula och röda prickar på kartan.

För musen över prickarna för att se namnen på stationerna.

Klicka sedan för att få väderrapporter och prognoser.

För att ändra kartan: Klicka på de gröna knapparna med ett svart kors på för att zooma in; den gröna knappen med ett streck på för att zooma ut; eller på de gröna pilarna för angränsande kartor.


METAR-TAF: